createdAt,value
2022-10-15T00:00:41.228Z,83.86
2022-10-15T00:03:07.907Z,83.61
2022-10-15T00:05:37.562Z,83.63
2022-10-15T00:08:04.494Z,83.55
2022-10-15T00:10:31.162Z,83.41
2022-10-15T00:12:58.071Z,83.57
2022-10-15T00:15:24.698Z,83.58
2022-10-15T00:17:51.272Z,83.43
2022-10-15T00:20:18.242Z,83.72
2022-10-15T00:22:44.883Z,83.69
2022-10-15T00:25:11.700Z,83.62
2022-10-15T00:27:38.566Z,83.38
2022-10-15T00:30:06.197Z,83.38
2022-10-15T00:32:33.628Z,83.25
2022-10-15T00:35:00.175Z,83.39
2022-10-15T00:37:26.882Z,83.15
2022-10-15T00:39:53.944Z,83.11
2022-10-15T00:42:21.096Z,82.92
2022-10-15T00:44:56.193Z,83.07
2022-10-15T00:47:37.522Z,82.83
2022-10-15T00:50:11.152Z,83.03
2022-10-15T00:52:44.028Z,82.91
2022-10-15T00:55:13.709Z,82.95
2022-10-15T00:57:41.271Z,82.77
2022-10-15T01:00:15.059Z,82.52
2022-10-15T01:02:43.590Z,82.50
2022-10-15T01:05:11.552Z,82.75
2022-10-15T01:07:40.066Z,82.63
2022-10-15T01:10:08.954Z,82.66
2022-10-15T01:13:01.880Z,82.98
2022-10-15T01:15:43.477Z,82.77
2022-10-15T01:18:18.123Z,82.90
2022-10-15T01:20:58.353Z,82.91
2022-10-15T01:23:57.679Z,83.23
2022-10-15T01:26:42.771Z,83.37
2022-10-15T01:29:38.167Z,83.16
2022-10-15T01:32:24.086Z,83.24
2022-10-15T01:35:05.230Z,82.93
2022-10-15T01:37:57.777Z,83.32
2022-10-15T01:40:31.222Z,83.13
2022-10-15T01:43:00.044Z,83.48
2022-10-15T01:45:49.806Z,83.31
2022-10-15T01:48:31.520Z,83.12
2022-10-15T01:51:02.191Z,83.13
2022-10-15T01:53:29.568Z,83.00
2022-10-15T01:56:00.658Z,83.11
2022-10-15T01:58:29.838Z,83.14
2022-10-15T02:00:58.611Z,83.02
2022-10-15T02:03:26.309Z,82.79
2022-10-15T02:06:06.471Z,82.80
2022-10-15T02:08:45.445Z,82.67
2022-10-15T02:11:18.503Z,82.44
2022-10-15T02:13:55.509Z,82.74
2022-10-15T02:16:40.612Z,82.70
2022-10-15T02:19:30.218Z,82.78
2022-10-15T02:22:32.263Z,82.74
2022-10-15T02:25:05.003Z,82.70
2022-10-15T02:27:34.072Z,82.78
2022-10-15T02:30:06.654Z,82.54
2022-10-15T02:32:35.428Z,82.36
2022-10-15T02:35:02.896Z,82.74
2022-10-15T02:37:31.365Z,82.63
2022-10-15T02:39:57.989Z,82.78
2022-10-15T02:42:25.485Z,82.74
2022-10-15T02:44:52.908Z,83.14
2022-10-15T02:47:19.704Z,82.96
2022-10-15T02:49:47.140Z,82.85
2022-10-15T02:52:14.093Z,83.16
2022-10-15T02:54:41.553Z,83.09
2022-10-15T02:57:08.185Z,83.40
2022-10-15T02:59:34.936Z,83.43
2022-10-15T03:02:02.110Z,83.42
2022-10-15T03:04:29.724Z,83.85
2022-10-15T03:06:58.001Z,84.19
2022-10-15T03:09:25.606Z,84.57
2022-10-15T03:11:52.213Z,84.41
2022-10-15T03:14:20.268Z,84.75
2022-10-15T03:16:46.885Z,85.33
2022-10-15T03:19:13.561Z,85.30
2022-10-15T03:21:40.782Z,85.54
2022-10-15T03:24:11.689Z,85.66
2022-10-15T03:26:38.346Z,85.80
2022-10-15T03:29:04.993Z,86.02
2022-10-15T03:31:36.158Z,85.73
2022-10-15T03:34:04.310Z,85.90
2022-10-15T03:36:31.442Z,85.81
2022-10-15T03:38:58.915Z,86.00
2022-10-15T03:41:25.680Z,86.14
2022-10-15T03:43:52.919Z,86.24
2022-10-15T03:46:19.874Z,86.37
2022-10-15T03:48:50.619Z,86.22
2022-10-15T03:51:22.744Z,86.17
2022-10-15T03:53:56.568Z,85.81
2022-10-15T03:56:23.811Z,85.45
2022-10-15T03:58:50.976Z,85.30
2022-10-15T04:01:18.816Z,85.58
2022-10-15T04:03:45.962Z,85.33
2022-10-15T04:06:15.709Z,85.35
2022-10-15T04:08:42.399Z,85.47
2022-10-15T04:11:22.759Z,85.32
2022-10-15T04:13:59.343Z,85.03
2022-10-15T04:16:26.178Z,85.11
2022-10-15T04:18:53.884Z,85.45
2022-10-15T04:21:21.514Z,85.61
2022-10-15T04:23:53.763Z,85.59
2022-10-15T04:26:26.841Z,85.50
2022-10-15T04:28:53.936Z,85.47
2022-10-15T04:31:22.669Z,85.62
2022-10-15T04:33:49.993Z,85.38
2022-10-15T04:38:56.153Z,85.62
2022-10-15T04:41:35.234Z,85.38
2022-10-15T04:44:08.608Z,85.07
2022-10-15T04:46:37.228Z,85.27
2022-10-15T04:49:19.539Z,85.22
2022-10-15T04:51:46.292Z,85.43
2022-10-15T04:54:17.911Z,85.80
2022-10-15T04:56:57.013Z,85.49
2022-10-15T04:59:24.326Z,85.91
2022-10-15T05:02:17.418Z,85.94
2022-10-15T05:04:48.209Z,85.74
2022-10-15T05:07:15.524Z,85.93
2022-10-15T05:09:46.161Z,86.09
2022-10-15T05:12:14.472Z,85.79
2022-10-15T05:14:41.884Z,85.79
2022-10-15T05:17:15.649Z,85.99
2022-10-15T05:19:46.293Z,85.57
2022-10-15T05:22:20.423Z,86.14
2022-10-15T05:24:51.970Z,86.10
2022-10-15T05:27:27.042Z,86.74
2022-10-15T05:29:53.838Z,86.79
2022-10-15T05:34:51.630Z,87.00
2022-10-15T05:37:18.372Z,87.48
2022-10-15T05:39:45.125Z,88.04
2022-10-15T05:42:11.970Z,88.03
2022-10-15T05:44:42.413Z,87.76
2022-10-15T05:47:11.899Z,88.07
2022-10-15T05:49:40.559Z,87.88
2022-10-15T05:52:15.818Z,86.95
2022-10-15T05:55:01.241Z,87.71
2022-10-15T05:57:28.022Z,87.31
2022-10-15T05:59:56.947Z,87.30
2022-10-15T06:02:24.142Z,86.92
2022-10-15T06:04:53.349Z,87.49
2022-10-15T06:07:20.490Z,86.92
2022-10-15T06:09:47.467Z,86.90
2022-10-15T06:12:15.678Z,86.81
2022-10-15T06:14:42.260Z,86.58
2022-10-15T06:17:08.814Z,86.83
2022-10-15T06:19:35.388Z,86.66
2022-10-15T06:22:02.052Z,87.38
2022-10-15T06:24:28.650Z,86.89
2022-10-15T06:27:00.316Z,88.00
2022-10-15T06:29:30.289Z,88.79
2022-10-15T06:32:02.069Z,89.42
2022-10-15T06:34:28.732Z,89.27
2022-10-15T06:36:55.927Z,89.36
2022-10-15T06:39:24.150Z,89.22
2022-10-15T06:41:50.889Z,89.29
2022-10-15T06:44:17.521Z,88.71
2022-10-15T06:46:44.128Z,88.61
2022-10-15T06:49:10.762Z,88.71
2022-10-15T06:51:42.534Z,89.03
2022-10-15T06:54:09.122Z,89.24
2022-10-15T06:56:36.110Z,89.08
2022-10-15T06:59:02.739Z,89.20
2022-10-15T07:01:29.352Z,90.17
2022-10-15T07:03:55.968Z,90.27
2022-10-15T07:06:22.700Z,90.42
2022-10-15T07:08:55.507Z,91.62
2022-10-15T07:11:22.096Z,91.63
2022-10-15T07:13:48.689Z,91.34
2022-10-15T07:16:15.628Z,90.51
2022-10-15T07:18:42.190Z,90.41
2022-10-15T07:23:37.691Z,90.30
2022-10-15T07:26:04.437Z,90.48
2022-10-15T07:28:31.322Z,90.17
2022-10-15T07:31:04.480Z,90.06
2022-10-15T07:33:33.385Z,90.42
2022-10-15T07:36:06.611Z,91.56
2022-10-15T07:38:34.096Z,91.83
2022-10-15T07:41:02.672Z,91.60
2022-10-15T07:43:32.137Z,91.55
2022-10-15T07:45:58.660Z,92.60
2022-10-15T07:48:25.446Z,91.67
2022-10-15T07:51:00.492Z,92.52
2022-10-15T07:53:27.460Z,92.00
2022-10-15T07:55:59.983Z,91.62
2022-10-15T07:58:30.853Z,92.95
2022-10-15T08:01:02.866Z,95.40
2022-10-15T08:03:30.686Z,94.92
2022-10-15T08:06:00.295Z,94.60
2022-10-15T08:08:28.438Z,94.08
2022-10-15T08:10:55.127Z,93.83
2022-10-15T08:13:21.862Z,93.85
2022-10-15T08:15:50.919Z,93.28
2022-10-15T08:18:17.734Z,92.94
2022-10-15T08:20:44.325Z,92.51
2022-10-15T08:23:15.993Z,91.98
2022-10-15T08:25:42.761Z,93.12
2022-10-15T08:28:12.843Z,92.33
2022-10-15T08:30:39.477Z,92.96
2022-10-15T08:33:12.370Z,93.08
2022-10-15T08:35:43.633Z,92.88
2022-10-15T08:38:14.787Z,92.39
2022-10-15T08:40:54.645Z,95.10
2022-10-15T08:43:43.211Z,94.75
2022-10-15T08:46:39.797Z,93.25
2022-10-15T08:49:29.836Z,93.76
2022-10-15T08:52:06.984Z,93.08
2022-10-15T08:54:35.480Z,91.91
2022-10-15T08:57:17.068Z,91.80
2022-10-15T08:59:52.601Z,91.38
2022-10-15T09:02:42.412Z,91.75
2022-10-15T09:05:44.121Z,90.74
2022-10-15T09:08:31.681Z,90.95
2022-10-15T09:11:09.456Z,90.84
2022-10-15T09:13:42.342Z,89.49
2022-10-15T09:16:16.637Z,88.88
2022-10-15T09:18:49.978Z,88.93
2022-10-15T09:21:17.259Z,87.71
2022-10-15T09:23:45.299Z,88.54
2022-10-15T09:26:11.890Z,88.29
2022-10-15T09:28:58.881Z,86.99
2022-10-15T09:31:31.020Z,86.53
2022-10-15T09:34:12.729Z,86.90
2022-10-15T09:37:31.852Z,87.06
2022-10-15T09:40:35.693Z,86.81
2022-10-15T09:43:04.276Z,86.81
2022-10-15T09:45:31.185Z,87.93
2022-10-15T09:48:00.235Z,88.01
2022-10-15T09:50:37.051Z,88.46
2022-10-15T09:53:25.984Z,87.48
2022-10-15T09:56:13.829Z,86.25
2022-10-15T09:58:49.708Z,87.84
2022-10-15T10:01:24.032Z,88.14
2022-10-15T10:03:54.000Z,87.84
2022-10-15T10:06:23.243Z,86.87
2022-10-15T10:08:59.472Z,85.92
2022-10-15T10:11:27.340Z,85.11
2022-10-15T10:13:59.621Z,84.01
2022-10-15T10:16:27.706Z,83.58
2022-10-15T10:19:06.631Z,83.58
2022-10-15T10:21:39.241Z,82.39
2022-10-15T10:24:31.829Z,81.97
2022-10-15T10:26:59.768Z,81.35
2022-10-15T10:29:35.484Z,80.41
2022-10-15T10:32:19.045Z,79.65
2022-10-15T10:34:51.471Z,79.13
2022-10-15T10:37:19.406Z,78.91
2022-10-15T10:39:51.777Z,78.62
2022-10-15T10:42:19.483Z,78.91
2022-10-15T10:44:46.828Z,77.42
2022-10-15T10:47:15.077Z,75.68
2022-10-15T10:49:43.280Z,75.75
2022-10-15T10:52:29.087Z,74.73
2022-10-15T10:54:58.917Z,74.63
2022-10-15T10:57:50.922Z,73.91
2022-10-15T11:00:45.456Z,74.27
2022-10-15T11:03:34.480Z,75.45
2022-10-15T11:06:35.345Z,74.64
2022-10-15T11:09:15.726Z,75.19
2022-10-15T11:12:21.672Z,75.20
2022-10-15T11:14:59.207Z,74.25
2022-10-15T11:17:46.909Z,73.35
2022-10-15T11:20:57.714Z,74.11
2022-10-15T11:24:05.497Z,73.15
2022-10-15T11:26:59.256Z,73.38
2022-10-15T11:30:09.782Z,73.52
2022-10-15T11:33:08.129Z,72.88
2022-10-15T11:35:53.797Z,72.63
2022-10-15T11:38:29.463Z,72.03
2022-10-15T11:40:59.104Z,71.72
2022-10-15T11:43:28.557Z,71.35
2022-10-15T11:46:11.100Z,72.25
2022-10-15T11:48:56.290Z,71.81
2022-10-15T11:51:27.529Z,71.62
2022-10-15T11:54:13.164Z,71.76
2022-10-15T11:56:45.688Z,74.03
2022-10-15T11:59:30.442Z,76.15
2022-10-15T12:02:22.483Z,76.38
2022-10-15T12:04:56.755Z,78.45
2022-10-15T12:07:30.987Z,78.47
2022-10-15T12:10:05.018Z,77.77
2022-10-15T12:12:46.186Z,77.38
2022-10-15T12:15:33.531Z,76.83
2022-10-15T12:18:37.076Z,76.24
2022-10-15T12:21:03.727Z,76.25
2022-10-15T12:23:36.185Z,76.89
2022-10-15T12:26:23.798Z,77.43
2022-10-15T12:28:58.376Z,78.30
2022-10-15T12:31:44.354Z,78.30
2022-10-15T12:34:27.452Z,78.90
2022-10-15T12:37:03.471Z,80.33
2022-10-15T12:39:51.173Z,81.51
2022-10-15T12:42:28.429Z,80.41
2022-10-15T12:44:57.116Z,80.67
2022-10-15T12:48:04.935Z,80.74
2022-10-15T12:50:34.205Z,80.47
2022-10-15T12:53:29.382Z,80.15
2022-10-15T12:56:11.950Z,80.25
2022-10-15T12:58:46.307Z,80.94
2022-10-15T13:01:12.911Z,80.08
2022-10-15T13:03:43.541Z,79.84
2022-10-15T13:06:36.592Z,80.70
2022-10-15T13:09:03.245Z,81.35
2022-10-15T13:11:48.212Z,80.23
2022-10-15T13:14:26.271Z,79.62
2022-10-15T13:16:55.826Z,77.92
2022-10-15T13:19:39.451Z,77.16
2022-10-15T13:22:19.733Z,76.52
2022-10-15T13:24:46.508Z,76.60
2022-10-15T13:27:32.678Z,77.49
2022-10-15T13:30:06.843Z,76.99
2022-10-15T13:32:38.643Z,77.60
2022-10-15T13:35:12.080Z,76.97
2022-10-15T13:37:41.009Z,76.56
2022-10-15T13:40:08.672Z,75.92
2022-10-15T13:42:35.563Z,76.13
2022-10-15T13:45:19.167Z,75.75
2022-10-15T13:47:52.199Z,74.84
2022-10-15T13:50:30.615Z,74.47
2022-10-15T13:53:09.470Z,75.49
2022-10-15T13:55:46.038Z,75.78
2022-10-15T13:58:15.569Z,76.96
2022-10-15T14:00:42.419Z,76.31
2022-10-15T14:03:16.085Z,74.90
2022-10-15T14:05:48.005Z,74.32
2022-10-15T14:08:27.838Z,73.88
2022-10-15T14:10:58.579Z,73.65
2022-10-15T14:13:26.580Z,71.97
2022-10-15T14:16:00.360Z,69.59
2022-10-15T14:18:37.656Z,67.30
2022-10-15T14:21:11.501Z,64.75
2022-10-15T14:23:39.129Z,63.22
2022-10-15T14:26:06.262Z,62.95
2022-10-15T14:28:34.502Z,63.56
2022-10-15T14:31:02.719Z,66.71
2022-10-15T14:33:38.047Z,66.73
2022-10-15T14:36:06.461Z,66.04
2022-10-15T14:38:33.733Z,66.43
2022-10-15T14:41:18.691Z,67.03
2022-10-15T14:43:45.333Z,66.09
2022-10-15T14:46:17.822Z,66.15
2022-10-15T14:48:44.826Z,66.34
2022-10-15T14:51:24.749Z,66.03
2022-10-15T14:53:53.100Z,66.36
2022-10-15T14:56:23.877Z,65.91
2022-10-15T14:58:56.798Z,66.25
2022-10-15T15:01:24.580Z,66.38
2022-10-15T15:03:53.761Z,67.03
2022-10-15T15:06:20.821Z,67.61
2022-10-15T15:08:47.554Z,67.97
2022-10-15T15:11:19.265Z,68.08
2022-10-15T15:13:46.240Z,68.69
2022-10-15T15:16:15.627Z,69.12
2022-10-15T15:18:43.893Z,69.66
2022-10-15T15:21:18.281Z,70.24
2022-10-15T15:23:45.007Z,71.98
2022-10-15T15:26:11.567Z,72.59
2022-10-15T15:28:38.204Z,73.38
2022-10-15T15:31:08.108Z,73.85
2022-10-15T15:33:35.177Z,75.88
2022-10-15T15:36:21.019Z,76.65
2022-10-15T15:38:50.432Z,76.65
2022-10-15T15:41:19.717Z,76.64
2022-10-15T15:43:46.936Z,77.10
2022-10-15T15:46:13.645Z,77.32
2022-10-15T15:48:40.454Z,77.35
2022-10-15T15:51:19.161Z,78.02
2022-10-15T15:53:45.931Z,78.36
2022-10-15T15:56:12.555Z,78.03
2022-10-15T15:58:39.245Z,78.01
2022-10-15T16:01:05.945Z,77.79
2022-10-15T16:03:32.600Z,78.04
2022-10-15T16:05:59.244Z,78.37
2022-10-15T16:08:25.913Z,79.34
2022-10-15T16:10:52.493Z,79.75
2022-10-15T16:13:19.391Z,79.91
2022-10-15T16:15:46.031Z,79.45
2022-10-15T16:18:12.657Z,79.99
2022-10-15T16:20:46.309Z,80.66
2022-10-15T16:23:14.670Z,81.01
2022-10-15T16:25:41.522Z,82.53
2022-10-15T16:28:08.196Z,81.39
2022-10-15T16:30:34.909Z,81.77
2022-10-15T16:33:01.510Z,81.50
2022-10-15T16:35:28.107Z,81.97
2022-10-15T16:37:56.196Z,81.45
2022-10-15T16:40:23.797Z,81.22
2022-10-15T16:42:50.423Z,81.17
2022-10-15T16:45:17.256Z,81.34
2022-10-15T16:47:43.819Z,81.54
2022-10-15T16:50:10.524Z,81.50
2022-10-15T16:52:37.114Z,81.59
2022-10-15T16:55:03.829Z,81.27
2022-10-15T16:57:30.444Z,81.51
2022-10-15T16:59:57.011Z,81.35
2022-10-15T17:02:23.757Z,81.49
2022-10-15T17:04:50.555Z,81.82
2022-10-15T17:07:17.277Z,81.90
2022-10-15T17:09:44.931Z,81.76
2022-10-15T17:12:11.966Z,81.99
2022-10-15T17:14:38.590Z,82.04
2022-10-15T17:17:07.613Z,81.98
2022-10-15T17:19:35.046Z,81.92
2022-10-15T17:22:01.664Z,81.57
2022-10-15T17:24:28.293Z,81.43
2022-10-15T17:26:57.761Z,81.56
2022-10-15T17:29:27.778Z,81.56
2022-10-15T17:31:57.487Z,81.66
2022-10-15T17:34:24.204Z,81.79
2022-10-15T17:36:52.178Z,81.97
2022-10-15T17:39:20.573Z,81.71
2022-10-15T17:41:47.586Z,81.82
2022-10-15T17:44:14.319Z,81.71
2022-10-15T17:46:41.462Z,81.67
2022-10-15T17:49:09.686Z,81.90
2022-10-15T17:51:37.203Z,82.27
2022-10-15T17:54:06.118Z,82.74
2022-10-15T17:56:38.283Z,82.47
2022-10-15T17:59:07.478Z,82.53
2022-10-15T18:01:57.153Z,82.63
2022-10-15T18:04:23.666Z,82.51
2022-10-15T18:06:50.294Z,82.66
2022-10-15T18:09:27.599Z,82.64
2022-10-15T18:12:01.163Z,82.33
2022-10-15T18:14:30.281Z,82.30
2022-10-15T18:16:57.147Z,82.30
2022-10-15T18:19:25.798Z,82.42
2022-10-15T18:21:52.918Z,82.27
2022-10-15T18:24:21.946Z,82.19
2022-10-15T18:26:50.046Z,82.12
2022-10-15T18:29:16.704Z,82.00
2022-10-15T18:31:45.245Z,82.22
2022-10-15T18:34:11.897Z,82.31
2022-10-15T18:36:41.522Z,82.24
2022-10-15T18:39:08.114Z,82.09
2022-10-15T18:41:37.274Z,82.11
2022-10-15T18:44:06.734Z,82.09
2022-10-15T18:46:34.866Z,82.37
2022-10-15T18:49:02.450Z,81.93
2022-10-15T18:51:30.771Z,81.65
2022-10-15T18:53:58.436Z,81.48
2022-10-15T18:56:25.396Z,81.38
2022-10-15T18:58:54.713Z,81.43
2022-10-15T19:01:43.995Z,81.29
2022-10-15T19:04:13.835Z,81.26
2022-10-15T19:06:46.292Z,81.13
2022-10-15T19:09:15.298Z,81.19
2022-10-15T19:11:43.877Z,81.34
2022-10-15T19:14:11.103Z,81.46
2022-10-15T19:16:37.805Z,81.65
2022-10-15T19:19:12.883Z,81.63
2022-10-15T19:21:39.481Z,81.56
2022-10-15T19:24:06.225Z,81.64
2022-10-15T19:26:33.183Z,81.63
2022-10-15T19:29:01.639Z,81.79
2022-10-15T19:31:37.216Z,81.87
2022-10-15T19:34:04.687Z,81.60
2022-10-15T19:36:37.808Z,81.49
2022-10-15T19:39:07.588Z,81.43
2022-10-15T19:41:42.572Z,81.68
2022-10-15T19:44:11.063Z,81.74
2022-10-15T19:46:38.587Z,81.79
2022-10-15T19:49:06.621Z,81.57
2022-10-15T19:51:33.780Z,81.62
2022-10-15T19:54:00.371Z,81.71
2022-10-15T19:56:31.377Z,81.53
2022-10-15T19:58:59.855Z,81.60
2022-10-15T20:01:27.791Z,81.68
2022-10-15T20:03:54.855Z,81.86
2022-10-15T20:06:21.450Z,81.84
2022-10-15T20:08:48.208Z,82.12
2022-10-15T20:11:14.824Z,81.72
2022-10-15T20:13:41.340Z,81.99
2022-10-15T20:16:10.487Z,81.94
2022-10-15T20:18:37.396Z,82.17
2022-10-15T20:21:12.368Z,81.96
2022-10-15T20:23:40.847Z,82.00
2022-10-15T20:26:09.644Z,82.28
2022-10-15T20:28:37.886Z,82.17
2022-10-15T20:31:12.524Z,82.47
2022-10-15T20:33:41.097Z,82.42
2022-10-15T20:36:14.452Z,82.44
2022-10-15T20:38:41.715Z,82.46
2022-10-15T20:41:10.828Z,83.12
2022-10-15T20:43:37.807Z,83.00
2022-10-15T20:46:08.640Z,82.79
2022-10-15T20:48:35.559Z,82.97
2022-10-15T20:51:02.175Z,83.01
2022-10-15T20:53:29.388Z,83.14
2022-10-15T20:55:56.042Z,83.23
2022-10-15T20:58:22.692Z,83.10
2022-10-15T21:00:49.234Z,83.11
2022-10-15T21:03:15.793Z,83.22
2022-10-15T21:05:42.434Z,83.16
2022-10-15T21:08:09.100Z,82.99
2022-10-15T21:10:35.719Z,82.75
2022-10-15T21:13:02.378Z,82.44
2022-10-15T21:15:30.613Z,82.36
2022-10-15T21:17:58.120Z,82.24
2022-10-15T21:20:26.077Z,82.24
2022-10-15T21:22:53.207Z,82.00
2022-10-15T21:25:20.238Z,82.45
2022-10-15T21:27:46.911Z,82.20
2022-10-15T21:30:13.562Z,81.95
2022-10-15T21:32:40.179Z,81.97
2022-10-15T21:35:07.192Z,81.93
2022-10-15T21:37:35.628Z,81.87
2022-10-15T21:40:02.745Z,82.47
2022-10-15T21:42:30.383Z,82.17
2022-10-15T21:44:58.010Z,82.41
2022-10-15T21:47:25.274Z,82.44
2022-10-15T21:49:52.129Z,82.59
2022-10-15T21:52:18.659Z,82.62
2022-10-15T21:54:45.775Z,82.58
2022-10-15T21:57:12.401Z,82.99
2022-10-15T21:59:39.066Z,82.83
2022-10-15T22:02:05.859Z,82.75
2022-10-15T22:04:35.702Z,82.73
2022-10-15T22:07:02.985Z,82.92
2022-10-15T22:09:30.049Z,82.84
2022-10-15T22:11:56.739Z,82.96
2022-10-15T22:14:23.360Z,83.21
2022-10-15T22:16:49.869Z,83.24
2022-10-15T22:19:17.451Z,83.40
2022-10-15T22:21:44.945Z,83.76
2022-10-15T22:24:14.838Z,83.71
2022-10-15T22:26:44.240Z,83.44
2022-10-15T22:29:20.081Z,83.54
2022-10-15T22:31:47.424Z,83.71
2022-10-15T22:34:14.391Z,84.10
2022-10-15T22:36:41.003Z,83.92
2022-10-15T22:39:08.671Z,84.53
2022-10-15T22:41:39.728Z,85.10
2022-10-15T22:44:14.083Z,85.46
2022-10-15T22:46:41.276Z,86.30
2022-10-15T22:49:08.626Z,87.97
2022-10-15T22:51:35.426Z,90.03
2022-10-15T22:54:02.122Z,89.33
2022-10-15T22:56:29.525Z,89.70
2022-10-15T22:58:57.659Z,88.04
2022-10-15T23:01:26.911Z,88.14
2022-10-15T23:03:56.638Z,88.30
2022-10-15T23:06:24.007Z,87.88
2022-10-15T23:08:51.592Z,88.69
2022-10-15T23:11:26.065Z,88.32
2022-10-15T23:13:58.285Z,89.34
2022-10-15T23:16:30.061Z,90.24
2022-10-15T23:19:02.081Z,91.77
2022-10-15T23:21:37.902Z,91.97
2022-10-15T23:24:06.010Z,92.34
2022-10-15T23:26:32.631Z,91.81
2022-10-15T23:29:01.558Z,91.73
2022-10-15T23:31:32.268Z,91.09
2022-10-15T23:33:59.521Z,90.24
2022-10-15T23:36:27.348Z,89.14
2022-10-15T23:39:02.916Z,90.71
2022-10-15T23:41:30.280Z,89.45
2022-10-15T23:43:57.286Z,90.53
2022-10-15T23:46:24.211Z,89.74
2022-10-15T23:48:51.446Z,88.53
2022-10-15T23:51:26.399Z,89.75
2022-10-15T23:53:54.505Z,89.20
2022-10-15T23:56:22.076Z,89.00
2022-10-15T23:58:54.164Z,90.43
